createdAt,value
2019-06-26T00:00:51.661Z,22.35
2019-06-26T00:04:53.871Z,22.33
2019-06-26T00:08:56.096Z,22.28
2019-06-26T00:12:58.322Z,22.28
2019-06-26T00:17:00.542Z,22.58
2019-06-26T00:21:02.735Z,22.59
2019-06-26T00:25:04.959Z,22.27
2019-06-26T00:29:07.214Z,22.46
2019-06-26T00:33:09.425Z,22.32
2019-06-26T00:37:11.643Z,22.18
2019-06-26T00:41:13.859Z,22.12
2019-06-26T00:45:16.067Z,22.02
2019-06-26T00:49:18.293Z,22.03
2019-06-26T00:53:20.527Z,22.00
2019-06-26T00:57:22.752Z,21.95
2019-06-26T01:01:24.964Z,21.94
2019-06-26T01:05:27.192Z,21.96
2019-06-26T01:09:29.406Z,21.97
2019-06-26T01:13:31.638Z,21.95
2019-06-26T01:17:33.912Z,21.94
2019-06-26T01:21:36.122Z,21.90
2019-06-26T01:25:38.330Z,21.89
2019-06-26T01:29:40.546Z,21.88
2019-06-26T01:33:42.772Z,21.91
2019-06-26T01:37:44.988Z,21.92
2019-06-26T01:41:47.201Z,21.85
2019-06-26T01:45:49.438Z,21.83
2019-06-26T01:49:51.657Z,21.90
2019-06-26T01:53:53.895Z,22.01
2019-06-26T01:57:56.096Z,22.10
2019-06-26T02:01:58.320Z,21.98
2019-06-26T02:06:00.561Z,21.90
2019-06-26T02:10:02.771Z,21.85
2019-06-26T02:14:04.995Z,21.80
2019-06-26T02:18:08.789Z,21.81
2019-06-26T02:22:11.029Z,21.78
2019-06-26T02:26:13.322Z,21.78
2019-06-26T02:30:15.465Z,21.84
2019-06-26T02:34:17.684Z,21.84
2019-06-26T02:38:19.904Z,21.80
2019-06-26T02:42:22.114Z,21.72
2019-06-26T02:46:24.344Z,21.77
2019-06-26T02:50:26.543Z,21.74
2019-06-26T02:54:28.764Z,21.73
2019-06-26T02:58:31.018Z,21.76
2019-06-26T03:02:33.216Z,21.77
2019-06-26T03:06:35.415Z,21.74
2019-06-26T03:10:37.643Z,21.81
2019-06-26T03:14:39.889Z,21.76
2019-06-26T03:18:42.090Z,21.73
2019-06-26T03:22:44.297Z,21.83
2019-06-26T03:26:46.544Z,21.82
2019-06-26T03:30:48.751Z,21.82
2019-06-26T03:34:50.972Z,21.81
2019-06-26T03:38:53.213Z,21.84
2019-06-26T03:42:55.428Z,21.82
2019-06-26T03:46:57.674Z,21.90
2019-06-26T03:50:59.926Z,21.88
2019-06-26T03:55:02.142Z,21.91
2019-06-26T03:59:04.365Z,21.94
2019-06-26T04:03:06.616Z,21.98
2019-06-26T04:07:08.832Z,22.05
2019-06-26T04:11:11.051Z,22.02
2019-06-26T04:15:13.239Z,22.15
2019-06-26T04:19:15.478Z,22.13
2019-06-26T04:23:17.691Z,22.11
2019-06-26T04:27:19.913Z,22.22
2019-06-26T04:31:22.124Z,22.19
2019-06-26T04:35:24.335Z,22.29
2019-06-26T04:39:26.540Z,22.31
2019-06-26T04:43:28.790Z,22.32
2019-06-26T04:47:31.011Z,22.33
2019-06-26T04:51:33.229Z,22.38
2019-06-26T04:55:35.461Z,22.43
2019-06-26T05:04:02.413Z,22.86
2019-06-26T05:08:04.658Z,22.90
2019-06-26T05:12:06.881Z,22.92
2019-06-26T05:16:15.068Z,22.94
2019-06-26T05:20:13.031Z,22.96
2019-06-26T05:24:15.198Z,22.98
2019-06-26T05:28:17.384Z,23.00
2019-06-26T05:32:19.578Z,23.02
2019-06-26T05:36:21.757Z,23.03
2019-06-26T05:40:23.958Z,23.06
2019-06-26T05:44:26.148Z,23.07
2019-06-26T05:48:28.345Z,23.09
2019-06-26T05:52:30.460Z,23.09
2019-06-26T05:56:32.679Z,23.11
2019-06-26T06:00:34.847Z,23.12
2019-06-26T06:04:37.029Z,23.14
2019-06-26T06:08:39.208Z,23.14
2019-06-26T06:12:41.351Z,23.15
2019-06-26T06:16:47.780Z,23.16
2019-06-26T06:20:47.389Z,23.17
2019-06-26T06:24:49.580Z,23.19
2019-06-26T06:28:51.862Z,23.22
2019-06-26T06:32:53.994Z,23.22
2019-06-26T06:36:56.188Z,23.24
2019-06-26T06:40:58.344Z,23.26
2019-06-26T06:45:00.537Z,23.27
2019-06-26T06:49:02.723Z,23.28
2019-06-26T06:53:04.869Z,23.28
2019-06-26T06:57:07.059Z,23.31
2019-06-26T07:01:09.253Z,23.32
2019-06-26T07:05:11.469Z,23.35
2019-06-26T07:09:13.636Z,23.41
2019-06-26T07:13:15.840Z,23.44
2019-06-26T07:17:21.091Z,23.45
2019-06-26T07:21:21.869Z,23.45
2019-06-26T07:25:24.072Z,23.46
2019-06-26T07:29:26.262Z,23.46
2019-06-26T07:33:28.498Z,23.45
2019-06-26T07:37:30.704Z,23.47
2019-06-26T07:41:32.877Z,23.52
2019-06-26T07:45:35.102Z,23.55
2019-06-26T07:49:37.304Z,23.54
2019-06-26T07:53:39.506Z,23.59
2019-06-26T07:57:41.727Z,23.61
2019-06-26T08:01:43.936Z,23.62
2019-06-26T08:05:46.114Z,23.64
2019-06-26T08:09:48.326Z,23.66
2019-06-26T08:13:50.551Z,23.67
2019-06-26T08:18:00.425Z,23.68
2019-06-26T08:21:56.667Z,23.69
2019-06-26T08:25:58.864Z,23.69
2019-06-26T08:30:01.260Z,23.71
2019-06-26T08:34:03.524Z,23.70
2019-06-26T08:38:11.278Z,23.71
2019-06-26T08:42:09.619Z,23.75
2019-06-26T08:46:11.854Z,23.90
2019-06-26T08:50:14.054Z,24.44
2019-06-26T08:54:16.273Z,24.38
2019-06-26T08:58:18.493Z,24.50
2019-06-26T09:02:20.775Z,24.13
2019-06-26T09:06:23.002Z,24.01
2019-06-26T09:10:25.213Z,24.19
2019-06-26T09:14:27.431Z,24.17
2019-06-26T09:18:35.528Z,24.06
2019-06-26T09:22:33.533Z,24.31
2019-06-26T09:26:35.830Z,24.33
2019-06-26T09:30:38.091Z,24.14
2019-06-26T09:34:40.288Z,24.20
2019-06-26T09:38:42.563Z,24.19
2019-06-26T09:42:44.854Z,24.33
2019-06-26T09:46:47.070Z,24.33
2019-06-26T09:50:49.362Z,24.26
2019-06-26T09:54:51.679Z,24.14
2019-06-26T15:44:16.094Z,24.42
2019-06-26T15:48:18.317Z,24.31
2019-06-26T15:52:20.536Z,24.25
2019-06-26T15:56:22.760Z,24.22
2019-06-26T16:00:25.004Z,24.26
2019-06-26T16:04:27.244Z,24.23
2019-06-26T16:08:29.470Z,24.26
2019-06-26T16:12:31.683Z,24.26
2019-06-26T16:16:35.440Z,24.17
2019-06-26T16:20:37.668Z,24.19
2019-06-26T16:24:39.891Z,24.20
2019-06-26T16:28:42.110Z,24.13
2019-06-26T16:32:44.331Z,24.15
2019-06-26T16:36:46.577Z,24.10
2019-06-26T16:40:48.837Z,24.09
2019-06-26T16:44:51.063Z,24.05
2019-06-26T16:48:53.280Z,24.02
2019-06-26T16:52:55.616Z,24.08
2019-06-26T16:56:57.909Z,24.10
2019-06-26T17:01:00.160Z,24.03
2019-06-26T17:05:02.376Z,23.99
2019-06-26T17:09:04.793Z,24.01
2019-06-26T17:13:07.022Z,24.03
2019-06-26T17:17:09.267Z,23.96
2019-06-26T17:21:11.493Z,24.00
2019-06-26T17:25:13.737Z,23.98
2019-06-26T17:29:15.966Z,23.91
2019-06-26T17:33:18.186Z,23.92
2019-06-26T17:37:20.409Z,23.91
2019-06-26T17:41:22.674Z,23.92
2019-06-26T17:45:24.880Z,23.82
2019-06-26T17:49:27.116Z,23.78
2019-06-26T17:53:29.405Z,23.83
2019-06-26T17:57:31.653Z,23.88
2019-06-26T18:01:33.963Z,23.75
2019-06-26T18:05:36.205Z,23.74
2019-06-26T18:09:38.426Z,23.72
2019-06-26T18:13:40.669Z,23.67
2019-06-26T18:17:42.929Z,23.69
2019-06-26T18:21:45.167Z,23.69
2019-06-26T18:25:53.750Z,23.67
2019-06-26T18:29:51.280Z,23.66
2019-06-26T18:33:53.495Z,23.58
2019-06-26T18:37:55.735Z,23.31
2019-06-26T18:41:57.983Z,23.29
2019-06-26T18:46:00.260Z,23.23
2019-06-26T18:50:02.505Z,23.11
2019-06-26T18:54:04.803Z,23.11
2019-06-26T18:58:07.175Z,22.98
2019-06-26T19:02:09.527Z,23.08
2019-06-26T19:06:11.855Z,22.91
2019-06-26T19:10:14.027Z,22.84
2019-06-26T19:14:16.344Z,22.94
2019-06-26T19:18:19.617Z,22.99
2019-06-26T19:22:21.869Z,22.99
2019-06-26T19:26:24.089Z,22.96
2019-06-26T19:30:26.315Z,23.01
2019-06-26T19:34:28.567Z,23.01
2019-06-26T19:38:30.812Z,23.00
2019-06-26T19:42:33.037Z,22.93
2019-06-26T19:46:35.280Z,22.97
2019-06-26T19:50:37.505Z,23.01
2019-06-26T19:54:39.727Z,22.99
2019-06-26T19:58:41.948Z,23.02
2019-06-26T20:02:44.189Z,22.86
2019-06-26T20:06:46.467Z,22.79
2019-06-26T20:10:48.647Z,22.74
2019-06-26T20:14:50.892Z,22.73
2019-06-26T20:18:53.113Z,22.67
2019-06-26T20:22:55.344Z,22.62
2019-06-26T20:26:57.601Z,22.58
2019-06-26T20:30:59.846Z,22.51
2019-06-26T20:35:02.155Z,22.70
2019-06-26T20:39:04.904Z,22.74
2019-06-26T20:43:09.357Z,22.76
2019-06-26T20:47:11.668Z,22.87
2019-06-26T20:51:13.899Z,22.95
2019-06-26T20:55:16.151Z,23.00
2019-06-26T20:59:18.399Z,23.03
2019-06-26T21:03:21.421Z,23.07
2019-06-26T21:07:23.744Z,23.08
2019-06-26T21:11:25.981Z,23.11
2019-06-26T21:15:28.345Z,23.12
2019-06-26T21:19:30.618Z,23.13
2019-06-26T21:23:32.845Z,23.13
2019-06-26T21:27:35.087Z,23.14
2019-06-26T21:31:37.349Z,23.16
2019-06-26T21:35:39.586Z,23.17
2019-06-26T21:39:41.799Z,23.20
2019-06-26T21:43:44.041Z,23.20
2019-06-26T21:47:47.958Z,23.22
2019-06-26T21:51:50.172Z,23.24
2019-06-26T21:55:52.386Z,23.25
2019-06-26T21:59:54.606Z,23.26
2019-06-26T22:03:56.825Z,23.25
2019-06-26T22:07:59.071Z,23.28
2019-06-26T22:12:01.488Z,23.27
2019-06-26T22:16:03.704Z,23.28
2019-06-26T22:20:09.768Z,23.28
2019-06-26T22:24:09.846Z,23.30
2019-06-26T22:28:12.087Z,23.30
2019-06-26T22:32:14.294Z,23.31
2019-06-26T22:36:16.513Z,23.31
2019-06-26T22:40:18.731Z,23.32
2019-06-26T22:44:20.964Z,23.32
2019-06-26T22:48:23.148Z,23.31
2019-06-26T22:52:25.375Z,23.32
2019-06-26T22:56:29.413Z,23.34
2019-06-26T23:00:31.625Z,23.35
2019-06-26T23:04:33.851Z,23.35
2019-06-26T23:08:36.061Z,23.34
2019-06-26T23:12:38.275Z,23.35
2019-06-26T23:16:40.565Z,23.35
2019-06-26T23:20:42.723Z,23.38
2019-06-26T23:24:44.997Z,23.38
2019-06-26T23:28:47.200Z,23.37
2019-06-26T23:32:49.422Z,23.37
2019-06-26T23:36:51.776Z,23.37
2019-06-26T23:40:54.024Z,23.38
2019-06-26T23:44:56.236Z,23.39
2019-06-26T23:48:58.462Z,23.38
2019-06-26T23:53:00.881Z,23.39
2019-06-26T23:57:03.097Z,23.39
